createdAt,value
2022-11-05T00:01:28.331Z,25.50
2022-11-05T00:04:49.058Z,29.83
2022-11-05T00:08:11.825Z,25.70
2022-11-05T00:11:18.109Z,26.38
2022-11-05T00:14:39.687Z,25.42
2022-11-05T00:17:42.246Z,26.45
2022-11-05T00:20:44.971Z,38.28
2022-11-05T00:24:05.843Z,26.73
2022-11-05T00:27:10.694Z,34.28
2022-11-05T00:30:18.063Z,28.95
2022-11-05T00:33:23.153Z,30.90
2022-11-05T00:36:25.488Z,33.60
2022-11-05T00:39:27.872Z,28.97
2022-11-05T00:42:49.103Z,27.52
2022-11-05T00:45:51.484Z,29.35
2022-11-05T00:49:12.252Z,29.52
2022-11-05T00:52:33.063Z,31.85
2022-11-05T00:55:35.398Z,27.80
2022-11-05T00:58:37.848Z,31.40
2022-11-05T01:01:40.714Z,25.83
2022-11-05T01:04:43.226Z,28.25
2022-11-05T01:07:45.673Z,24.42
2022-11-05T01:10:51.454Z,28.60
2022-11-05T01:13:53.754Z,27.02
2022-11-05T01:16:56.170Z,27.95
2022-11-05T01:20:01.387Z,26.02
2022-11-05T01:23:05.480Z,28.67
2022-11-05T01:26:11.325Z,24.60
2022-11-05T01:29:13.786Z,29.73
2022-11-05T01:32:16.779Z,28.30
2022-11-05T01:35:19.154Z,25.25
2022-11-05T01:38:21.978Z,28.25
2022-11-05T01:41:24.324Z,32.17
2022-11-05T01:44:54.334Z,28.55
2022-11-05T01:48:02.569Z,31.90
2022-11-05T01:51:08.469Z,30.90
2022-11-05T01:54:14.306Z,27.67
2022-11-05T01:57:16.847Z,29.70
2022-11-05T02:00:20.854Z,27.50
2022-11-05T02:03:23.989Z,30.30
2022-11-05T02:06:27.565Z,28.65
2022-11-05T02:09:34.907Z,27.50
2022-11-05T02:12:39.890Z,27.23
2022-11-05T02:16:27.170Z,27.77
2022-11-05T02:20:00.400Z,25.40
2022-11-05T02:23:25.912Z,29.85
2022-11-05T02:27:02.310Z,42.55
2022-11-05T02:30:19.889Z,29.53
2022-11-05T02:33:35.808Z,28.48
2022-11-05T02:36:41.397Z,29.90
2022-11-05T02:40:05.582Z,29.02
2022-11-05T02:43:43.627Z,29.30
2022-11-05T02:46:52.968Z,29.40
2022-11-05T02:50:15.082Z,31.90
2022-11-05T02:53:35.305Z,29.45
2022-11-05T02:56:40.550Z,29.77
2022-11-05T02:59:43.085Z,27.40
2022-11-05T03:02:45.728Z,27.30
2022-11-05T03:06:19.089Z,26.23
2022-11-05T03:09:45.619Z,23.60
2022-11-05T03:12:48.088Z,26.60
2022-11-05T03:15:56.958Z,24.23
2022-11-05T03:19:08.537Z,26.97
2022-11-05T03:22:24.134Z,26.30
2022-11-05T03:25:28.319Z,28.13
2022-11-05T03:28:33.134Z,26.55
2022-11-05T03:31:37.307Z,28.55
2022-11-05T03:34:47.221Z,27.93
2022-11-05T03:37:51.256Z,24.65
2022-11-05T03:40:55.450Z,27.33
2022-11-05T03:43:58.851Z,24.77
2022-11-05T03:47:05.493Z,26.73
2022-11-05T03:50:14.180Z,28.67
2022-11-05T03:53:26.274Z,24.60
2022-11-05T03:56:30.779Z,29.92
2022-11-05T03:59:39.951Z,27.60
2022-11-05T04:02:42.590Z,25.77
2022-11-05T04:06:05.059Z,23.27
2022-11-05T04:09:26.031Z,25.83
2022-11-05T04:12:46.748Z,28.70
2022-11-05T04:16:07.494Z,26.92
2022-11-05T04:19:09.854Z,24.27
2022-11-05T04:22:30.982Z,26.57
2022-11-05T04:25:33.804Z,26.38
2022-11-05T04:28:54.543Z,26.17
2022-11-05T04:31:59.803Z,30.80
2022-11-05T04:35:02.122Z,30.52
2022-11-05T04:38:06.021Z,31.30
2022-11-05T04:41:17.692Z,32.80
2022-11-05T04:44:20.038Z,34.53
2022-11-05T04:47:22.372Z,33.28
2022-11-05T04:50:26.663Z,31.77
2022-11-05T04:53:29.257Z,32.77
2022-11-05T04:56:31.631Z,32.20
2022-11-05T04:59:33.974Z,40.75
2022-11-05T05:02:36.527Z,38.55
2022-11-05T05:05:38.883Z,33.50
2022-11-05T05:08:41.524Z,35.20
2022-11-05T05:11:43.929Z,35.03
2022-11-05T05:14:48.013Z,36.00
2022-11-05T05:17:53.553Z,35.30
2022-11-05T05:21:18.404Z,33.75
2022-11-05T05:24:21.408Z,32.47
2022-11-05T05:27:24.430Z,35.25
2022-11-05T05:30:29.364Z,36.22
2022-11-05T05:33:31.661Z,38.75
2022-11-05T05:36:34.055Z,36.13
2022-11-05T05:39:36.400Z,36.03
2022-11-05T05:42:42.929Z,36.67
2022-11-05T05:45:45.827Z,39.28
2022-11-05T05:48:50.028Z,38.35
2022-11-05T05:51:52.422Z,43.10
2022-11-05T05:54:54.830Z,39.73
2022-11-05T05:57:57.139Z,42.20
2022-11-05T06:01:17.418Z,41.95
2022-11-05T06:04:21.469Z,42.72
2022-11-05T06:07:23.843Z,41.55
2022-11-05T06:10:26.305Z,38.10
2022-11-05T06:13:29.265Z,42.05
2022-11-05T06:16:35.881Z,42.67
2022-11-05T06:19:38.385Z,44.05
2022-11-05T06:22:40.870Z,42.08
2022-11-05T06:25:43.243Z,44.47
2022-11-05T06:28:46.502Z,43.53
2022-11-05T06:31:48.979Z,42.97
2022-11-05T06:34:51.375Z,43.03
2022-11-05T06:37:53.758Z,45.80
2022-11-05T06:40:58.709Z,41.13
2022-11-05T06:44:01.177Z,49.67
2022-11-05T06:47:03.596Z,46.17
2022-11-05T06:50:06.485Z,43.40
2022-11-05T06:53:09.302Z,43.72
2022-11-05T06:56:12.133Z,43.03
2022-11-05T06:59:14.804Z,44.88
2022-11-05T07:02:18.294Z,42.53
2022-11-05T07:05:20.684Z,40.05
2022-11-05T07:08:24.053Z,45.00
2022-11-05T07:11:26.434Z,41.50
2022-11-05T07:14:30.125Z,43.60
2022-11-05T07:17:32.564Z,36.15
2022-11-05T07:20:35.449Z,42.85
2022-11-05T07:23:37.913Z,42.40
2022-11-05T07:26:40.256Z,41.87
2022-11-05T07:29:42.846Z,38.45
2022-11-05T07:32:45.351Z,40.15
2022-11-05T07:35:47.791Z,35.47
2022-11-05T07:38:50.170Z,33.30
2022-11-05T07:41:57.705Z,37.27
2022-11-05T07:45:07.877Z,37.30
2022-11-05T07:48:10.238Z,35.45
2022-11-05T07:51:12.550Z,40.83
2022-11-05T07:54:14.965Z,36.00
2022-11-05T07:57:17.359Z,36.03
2022-11-05T08:00:21.894Z,36.10
2022-11-05T08:03:24.603Z,39.13
2022-11-05T08:06:27.069Z,38.25
2022-11-05T08:09:29.520Z,39.17
2022-11-05T08:12:32.438Z,30.03
2022-11-05T08:15:35.469Z,35.97
2022-11-05T08:18:37.903Z,38.22
2022-11-05T08:21:40.348Z,34.22
2022-11-05T08:24:42.774Z,34.45
2022-11-05T08:27:45.806Z,35.57
2022-11-05T08:30:50.004Z,44.20
2022-11-05T08:33:57.119Z,44.28
2022-11-05T08:37:02.329Z,34.08
2022-11-05T08:40:05.319Z,35.22
2022-11-05T08:43:08.418Z,34.80
2022-11-05T08:46:11.083Z,56.15
2022-11-05T08:49:13.442Z,60.88
2022-11-05T08:52:15.950Z,45.03
2022-11-05T08:55:19.027Z,33.60
2022-11-05T08:58:21.413Z,34.80
2022-11-05T09:01:26.797Z,37.42
2022-11-05T09:04:30.500Z,36.55
2022-11-05T09:07:32.961Z,39.10
2022-11-05T09:10:35.868Z,44.03
2022-11-05T09:13:38.400Z,42.67
2022-11-05T09:16:42.522Z,41.05
2022-11-05T09:19:45.178Z,39.47
2022-11-05T09:22:47.648Z,35.20
2022-11-05T09:25:49.990Z,41.55
2022-11-05T09:28:52.353Z,36.13
2022-11-05T09:31:54.742Z,34.75
2022-11-05T09:34:57.098Z,37.10
2022-11-05T09:38:01.160Z,39.55
2022-11-05T09:41:24.216Z,41.45
2022-11-05T09:44:47.655Z,40.30
2022-11-05T09:47:54.725Z,42.30
2022-11-05T09:50:58.289Z,46.95
2022-11-05T09:54:00.775Z,43.63
2022-11-05T09:57:04.013Z,41.38
2022-11-05T10:00:08.603Z,38.57
2022-11-05T10:03:14.541Z,40.47
2022-11-05T10:06:22.122Z,38.42
2022-11-05T10:09:30.192Z,40.40
2022-11-05T10:12:40.371Z,40.90
2022-11-05T10:16:18.119Z,43.90
2022-11-05T10:19:24.553Z,42.47
2022-11-05T10:22:27.080Z,39.80
2022-11-05T10:25:32.023Z,44.40
2022-11-05T10:28:34.860Z,41.08
2022-11-05T10:31:37.822Z,37.47
2022-11-05T10:34:40.308Z,41.63
2022-11-05T10:37:42.670Z,41.75
2022-11-05T10:40:59.897Z,37.33
2022-11-05T10:44:23.473Z,39.92
2022-11-05T10:47:39.091Z,45.40
2022-11-05T10:50:44.176Z,48.15
2022-11-05T10:53:55.941Z,41.97
2022-11-05T10:57:01.170Z,47.03
2022-11-05T11:00:15.941Z,48.85
2022-11-05T11:03:40.088Z,43.30
2022-11-05T11:06:51.358Z,44.45
2022-11-05T11:09:54.012Z,49.13
2022-11-05T11:12:57.122Z,46.40
2022-11-05T11:16:19.909Z,40.35
2022-11-05T11:19:33.562Z,45.93
2022-11-05T11:22:35.885Z,45.03
2022-11-05T11:25:52.077Z,47.13
2022-11-05T11:29:23.515Z,42.40
2022-11-05T11:32:32.477Z,44.22
2022-11-05T11:35:37.862Z,44.40
2022-11-05T11:38:40.797Z,48.67
2022-11-05T11:41:44.234Z,47.05
2022-11-05T11:44:47.748Z,47.10
2022-11-05T11:47:50.966Z,46.03
2022-11-05T11:50:53.855Z,46.40
2022-11-05T11:53:58.362Z,45.13
2022-11-05T11:57:00.848Z,47.58
2022-11-05T12:00:11.256Z,42.97
2022-11-05T12:03:31.739Z,49.38
2022-11-05T12:07:05.685Z,49.07
2022-11-05T12:10:29.866Z,51.65
2022-11-05T12:13:55.390Z,50.22
2022-11-05T12:17:23.935Z,38.58
2022-11-05T12:20:34.154Z,43.58
2022-11-05T12:23:42.393Z,50.77
2022-11-05T12:27:11.050Z,42.35
2022-11-05T12:30:19.201Z,42.10
2022-11-05T12:33:33.806Z,52.17
2022-11-05T12:37:20.321Z,43.30
2022-11-05T12:40:50.567Z,42.13
2022-11-05T12:43:56.035Z,45.47
2022-11-05T12:47:14.663Z,46.10
2022-11-05T12:50:22.934Z,42.45
2022-11-05T12:53:34.366Z,41.85
2022-11-05T12:56:43.654Z,36.40
2022-11-05T13:00:06.741Z,40.47
2022-11-05T13:03:23.320Z,45.13
2022-11-05T13:06:30.996Z,38.53
2022-11-05T13:10:05.709Z,36.10
2022-11-05T13:13:38.219Z,40.17
2022-11-05T13:16:44.840Z,42.17
2022-11-05T13:19:52.608Z,35.15
2022-11-05T13:23:14.117Z,52.30
2022-11-05T13:26:27.550Z,44.80
2022-11-05T13:29:37.748Z,53.10
2022-11-05T13:32:45.049Z,42.90
2022-11-05T13:36:20.625Z,37.25
2022-11-05T13:39:25.087Z,37.22
2022-11-05T13:42:58.473Z,35.03
2022-11-05T13:46:25.207Z,37.83
2022-11-05T13:49:33.302Z,34.47
2022-11-05T13:52:50.872Z,36.92
2022-11-05T13:56:16.349Z,32.13
2022-11-05T13:59:48.906Z,30.95
2022-11-05T14:02:55.973Z,29.50
2022-11-05T14:06:10.030Z,29.80
2022-11-05T14:09:18.883Z,30.70
2022-11-05T14:12:36.793Z,29.08
2022-11-05T14:15:39.197Z,30.10
2022-11-05T14:18:44.311Z,30.07
2022-11-05T14:21:54.845Z,29.05
2022-11-05T14:24:57.943Z,20.42
2022-11-05T14:28:00.529Z,34.80
2022-11-05T14:31:05.398Z,24.40
2022-11-05T14:34:10.845Z,19.53
2022-11-05T14:37:13.341Z,24.45
2022-11-05T14:40:21.920Z,25.33
2022-11-05T14:43:26.022Z,19.92
2022-11-05T14:46:42.194Z,17.90
2022-11-05T14:50:09.200Z,16.50
2022-11-05T14:53:25.415Z,18.80
2022-11-05T14:56:27.910Z,18.80
2022-11-05T14:59:32.758Z,16.38
2022-11-05T15:02:38.532Z,15.65
2022-11-05T15:05:53.247Z,15.80
2022-11-05T15:08:56.400Z,17.27
2022-11-05T15:12:46.638Z,13.77
2022-11-05T15:15:50.758Z,13.85
2022-11-05T15:18:54.150Z,16.17
2022-11-05T15:21:58.699Z,14.77
2022-11-05T15:25:01.878Z,13.10
2022-11-05T15:28:27.265Z,11.32
2022-11-05T15:31:32.552Z,10.57
2022-11-05T15:34:35.712Z,11.30
2022-11-05T15:37:52.358Z,10.30
2022-11-05T15:41:03.001Z,8.23
2022-11-05T15:44:05.542Z,8.77
2022-11-05T15:47:16.891Z,6.63
2022-11-05T15:50:19.406Z,6.30
2022-11-05T15:53:51.552Z,7.23
2022-11-05T15:56:57.949Z,6.82
2022-11-05T16:00:04.844Z,6.78
2022-11-05T16:03:18.527Z,11.15
2022-11-05T16:06:23.586Z,8.85
2022-11-05T16:09:28.245Z,7.07
2022-11-05T16:12:35.475Z,6.30
2022-11-05T16:15:38.201Z,9.50
2022-11-05T16:18:41.723Z,8.40
2022-11-05T16:21:54.797Z,6.93
2022-11-05T16:24:57.443Z,7.67
2022-11-05T16:28:00.953Z,6.13
2022-11-05T16:31:05.774Z,4.75
2022-11-05T16:34:26.201Z,8.18
2022-11-05T16:37:31.713Z,6.10
2022-11-05T16:40:34.273Z,10.73
2022-11-05T16:43:36.941Z,8.15
2022-11-05T16:46:40.345Z,5.72
2022-11-05T16:49:42.983Z,6.43
2022-11-05T16:52:46.481Z,6.13
2022-11-05T16:55:49.757Z,6.77
2022-11-05T16:58:52.599Z,4.50
2022-11-05T17:01:56.085Z,5.68
2022-11-05T17:04:58.886Z,6.53
2022-11-05T17:08:03.523Z,6.10
2022-11-05T17:11:06.842Z,4.80
2022-11-05T17:14:13.103Z,7.05
2022-11-05T17:17:16.276Z,2.97
2022-11-05T17:20:39.890Z,4.85
2022-11-05T17:23:43.714Z,4.72
2022-11-05T17:26:46.521Z,4.67
2022-11-05T17:29:49.342Z,6.38
2022-11-05T17:32:52.424Z,4.90
2022-11-05T17:35:56.249Z,3.67
2022-11-05T17:38:58.925Z,4.97
2022-11-05T17:42:01.549Z,3.90
2022-11-05T17:45:04.810Z,5.05
2022-11-05T17:48:09.352Z,4.38
2022-11-05T17:51:18.523Z,2.95
2022-11-05T17:54:21.196Z,4.25
2022-11-05T17:57:23.915Z,4.57
2022-11-05T18:00:28.536Z,4.32
2022-11-05T18:03:31.663Z,4.82
2022-11-05T18:06:34.448Z,5.13
2022-11-05T18:09:37.784Z,5.65
2022-11-05T18:12:41.019Z,3.77
2022-11-05T18:15:44.691Z,7.25
2022-11-05T18:18:48.798Z,4.55
2022-11-05T18:21:51.625Z,4.22
2022-11-05T18:24:54.849Z,5.55
2022-11-05T18:27:57.679Z,9.13
2022-11-05T18:31:00.558Z,7.47
2022-11-05T18:34:03.655Z,4.72
2022-11-05T18:37:06.426Z,5.18
2022-11-05T18:40:10.057Z,10.27
2022-11-05T18:43:13.773Z,21.40
2022-11-05T18:46:43.148Z,27.27
2022-11-05T18:49:40.236Z,9.38
2022-11-05T18:52:43.303Z,9.27
2022-11-05T18:55:46.058Z,11.20
2022-11-05T18:58:49.730Z,10.67
2022-11-05T19:01:53.309Z,9.73
2022-11-05T19:05:26.650Z,12.90
2022-11-05T19:08:19.089Z,15.23
2022-11-05T19:11:23.652Z,8.60
2022-11-05T19:14:26.558Z,6.27
2022-11-05T19:17:29.401Z,5.47
2022-11-05T19:20:37.635Z,7.85
2022-11-05T19:23:41.140Z,8.02
2022-11-05T19:26:44.257Z,6.60
2022-11-05T19:29:47.684Z,6.20
2022-11-05T19:32:50.474Z,4.53
2022-11-05T19:35:53.287Z,3.47
2022-11-05T19:38:58.612Z,4.20
2022-11-05T19:42:03.770Z,3.15
2022-11-05T19:45:30.231Z,2.67
2022-11-05T19:48:31.516Z,2.95
2022-11-05T19:51:34.415Z,4.25
2022-11-05T19:54:37.533Z,4.03
2022-11-05T19:57:40.243Z,7.43
2022-11-05T20:00:43.392Z,5.27
2022-11-05T20:03:46.721Z,19.13
2022-11-05T20:06:49.659Z,27.23
2022-11-05T20:09:52.483Z,29.73
2022-11-05T20:12:55.209Z,23.25
2022-11-05T20:15:58.517Z,25.17
2022-11-05T20:19:01.312Z,33.15
2022-11-05T20:22:04.100Z,27.30
2022-11-05T20:25:07.134Z,42.13
2022-11-05T20:28:10.308Z,31.70
2022-11-05T20:31:15.638Z,22.17
2022-11-05T20:34:19.239Z,14.60
2022-11-05T20:37:21.940Z,22.38
2022-11-05T20:40:24.918Z,10.90
2022-11-05T20:43:30.652Z,3.38
2022-11-05T20:46:33.430Z,3.37
2022-11-05T20:49:36.262Z,5.45
2022-11-05T20:52:39.085Z,3.22
2022-11-05T20:55:46.650Z,5.72
2022-11-05T20:58:49.529Z,3.72
2022-11-05T21:01:52.416Z,3.80
2022-11-05T21:04:55.162Z,2.65
2022-11-05T21:07:57.982Z,3.97
2022-11-05T21:11:01.197Z,5.47
2022-11-05T21:14:03.961Z,5.45
2022-11-05T21:17:07.966Z,8.00
2022-11-05T21:20:10.720Z,7.75
2022-11-05T21:23:14.254Z,7.75
2022-11-05T21:26:18.012Z,7.90
2022-11-05T21:29:20.792Z,9.48
2022-11-05T21:32:23.311Z,15.70
2022-11-05T21:35:26.105Z,10.00
2022-11-05T21:38:29.130Z,9.95
2022-11-05T21:41:31.928Z,20.65
2022-11-05T21:44:34.747Z,13.60
2022-11-05T21:47:37.488Z,3.90
2022-11-05T21:50:59.567Z,7.40
2022-11-05T21:54:21.084Z,9.68
2022-11-05T21:57:42.384Z,5.78
2022-11-05T22:00:45.138Z,4.22
2022-11-05T22:03:49.897Z,5.10
2022-11-05T22:06:52.447Z,5.88
2022-11-05T22:09:55.406Z,5.13
2022-11-05T22:12:57.928Z,2.92
2022-11-05T22:16:00.707Z,3.15
2022-11-05T22:19:03.441Z,4.53
2022-11-05T22:22:06.862Z,4.40
2022-11-05T22:25:09.496Z,5.05
2022-11-05T22:28:12.439Z,3.47
2022-11-05T22:31:16.254Z,4.72
2022-11-05T22:34:19.049Z,3.70
2022-11-05T22:37:22.758Z,4.68
2022-11-05T22:40:25.401Z,4.57
2022-11-05T22:43:27.925Z,3.22
2022-11-05T22:46:30.657Z,4.20
2022-11-05T22:49:33.740Z,3.03
2022-11-05T22:52:36.211Z,3.78
2022-11-05T22:55:41.381Z,4.05
2022-11-05T22:58:43.864Z,3.33
2022-11-05T23:01:46.875Z,6.78
2022-11-05T23:04:51.503Z,4.80
2022-11-05T23:08:12.441Z,4.03
2022-11-05T23:11:41.196Z,3.08
2022-11-05T23:14:43.528Z,4.80
2022-11-05T23:18:04.237Z,4.78
2022-11-05T23:21:25.894Z,3.27
2022-11-05T23:24:28.408Z,2.63
2022-11-05T23:27:32.899Z,3.22
2022-11-05T23:30:56.879Z,3.65
2022-11-05T23:33:59.226Z,2.95
2022-11-05T23:37:20.139Z,3.93
2022-11-05T23:40:28.304Z,3.03
2022-11-05T23:43:49.388Z,3.13
2022-11-05T23:47:10.492Z,3.00
2022-11-05T23:50:13.016Z,3.70
2022-11-05T23:53:15.846Z,3.20
2022-11-05T23:56:18.223Z,2.55
2022-11-05T23:59:20.615Z,2.70
